createdAt,value
2022-10-03T00:00:26.140Z,101747.63
2022-10-03T00:03:34.545Z,101745.84
2022-10-03T00:06:10.734Z,101748.13
2022-10-03T00:09:15.602Z,101750.25
2022-10-03T00:12:02.395Z,101747.31
2022-10-03T00:14:54.765Z,101755.69
2022-10-03T00:18:04.510Z,101757.84
2022-10-03T00:20:42.539Z,101761.47
2022-10-03T00:23:18.945Z,101771.41
2022-10-03T00:25:56.974Z,101760.22
2022-10-03T00:28:42.044Z,101770.25
2022-10-03T00:31:16.592Z,101773.22
2022-10-03T00:33:52.707Z,101775.78
2022-10-03T00:36:38.042Z,101773.16
2022-10-03T00:39:22.411Z,101770.88
2022-10-03T00:42:03.043Z,101778.34
2022-10-03T00:45:12.011Z,101778.75
2022-10-03T00:47:57.265Z,101777.91
2022-10-03T00:50:57.806Z,101774.59
2022-10-03T00:53:30.319Z,101779.22
2022-10-03T00:56:10.165Z,101780.19
2022-10-03T00:58:53.971Z,101781.84
2022-10-03T01:01:43.694Z,101780.66
2022-10-03T01:04:38.272Z,101782.47
2022-10-03T01:07:12.714Z,101784.94
2022-10-03T01:09:42.134Z,101784.34
2022-10-03T01:12:31.846Z,101792.84
2022-10-03T01:15:16.368Z,101787.41
2022-10-03T01:17:54.840Z,101793.22
2022-10-03T01:20:39.603Z,101784.13
2022-10-03T01:23:43.099Z,101797.69
2022-10-03T01:26:24.788Z,101797.28
2022-10-03T01:29:18.262Z,101792.84
2022-10-03T01:31:50.211Z,101795.56
2022-10-03T01:34:25.806Z,101801.56
2022-10-03T01:37:05.594Z,101806.78
2022-10-03T01:39:36.603Z,101807.59
2022-10-03T01:42:20.315Z,101803.41
2022-10-03T01:45:05.210Z,101809.88
2022-10-03T01:47:41.063Z,101812.81
2022-10-03T01:50:19.734Z,101820.63
2022-10-03T01:52:58.578Z,101825.91
2022-10-03T01:55:55.465Z,101831.00
2022-10-03T01:58:36.085Z,101832.97
2022-10-03T02:01:29.005Z,101839.16
2022-10-03T02:04:06.787Z,101837.72
2022-10-03T02:06:54.978Z,101830.97
2022-10-03T02:10:03.737Z,101841.38
2022-10-03T02:13:02.929Z,101842.56
2022-10-03T02:15:43.909Z,101839.84
2022-10-03T02:18:26.206Z,101844.56
2022-10-03T02:21:24.122Z,101850.47
2022-10-03T02:24:08.149Z,101847.06
2022-10-03T02:26:50.084Z,101852.97
2022-10-03T02:29:19.553Z,101855.22
2022-10-03T02:32:23.953Z,101857.91
2022-10-03T02:35:10.516Z,101858.97
2022-10-03T02:38:11.015Z,101862.88
2022-10-03T02:41:08.224Z,101869.72
2022-10-03T02:43:56.304Z,101865.22
2022-10-03T02:46:40.890Z,101868.28
2022-10-03T02:49:33.742Z,101871.97
2022-10-03T02:52:29.367Z,101877.16
2022-10-03T02:55:22.835Z,101881.38
2022-10-03T02:57:55.486Z,101882.19
2022-10-03T03:00:39.894Z,101885.06
2022-10-03T03:03:43.840Z,101879.47
2022-10-03T03:06:35.547Z,101884.44
2022-10-03T03:09:09.005Z,101894.38
2022-10-03T03:11:59.187Z,101890.94
2022-10-03T03:14:49.091Z,101900.38
2022-10-03T03:17:34.565Z,101894.84
2022-10-03T03:20:29.017Z,101887.28
2022-10-03T03:23:01.882Z,101891.78
2022-10-03T03:25:43.798Z,101896.38
2022-10-03T03:28:25.351Z,101896.84
2022-10-03T03:31:39.524Z,101886.69
2022-10-03T03:34:30.745Z,101896.25
2022-10-03T03:37:11.021Z,101893.78
2022-10-03T03:39:51.769Z,101892.47
2022-10-03T03:42:30.661Z,101909.72
2022-10-03T03:45:31.029Z,101900.97
2022-10-03T03:48:15.748Z,101904.50
2022-10-03T03:51:11.430Z,101907.34
2022-10-03T03:53:38.128Z,101910.97
2022-10-03T03:56:43.474Z,101914.75
2022-10-03T03:59:23.946Z,101909.69
2022-10-03T04:02:11.566Z,101921.50
2022-10-03T04:05:25.977Z,101918.06
2022-10-03T04:08:14.811Z,101918.53
2022-10-03T04:10:46.201Z,101919.81
2022-10-03T04:13:41.049Z,101914.63
2022-10-03T04:16:44.728Z,101921.38
2022-10-03T04:19:37.551Z,101922.66
2022-10-03T04:22:25.481Z,101921.38
2022-10-03T04:25:18.006Z,101924.53
2022-10-03T04:28:18.794Z,101928.44
2022-10-03T04:30:51.545Z,101926.09
2022-10-03T04:33:35.651Z,101923.50
2022-10-03T04:36:57.230Z,101927.25
2022-10-03T04:39:30.368Z,101929.41
2022-10-03T04:42:08.027Z,101926.91
2022-10-03T04:44:56.618Z,101930.91
2022-10-03T04:47:39.551Z,101937.75
2022-10-03T04:50:11.802Z,101938.78
2022-10-03T04:52:41.507Z,101930.66
2022-10-03T04:55:42.233Z,101936.19
2022-10-03T04:58:26.606Z,101935.47
2022-10-03T05:01:12.202Z,101947.38
2022-10-03T05:04:00.482Z,101950.63
2022-10-03T05:06:59.016Z,101955.22
2022-10-03T05:09:52.586Z,101954.50
2022-10-03T05:12:48.063Z,101954.50
2022-10-03T05:15:27.034Z,101955.28
2022-10-03T05:18:15.809Z,101951.53
2022-10-03T05:21:10.054Z,101959.16
2022-10-03T05:24:10.462Z,101955.66
2022-10-03T05:26:46.787Z,101962.72
2022-10-03T05:29:34.935Z,101963.69
2022-10-03T05:32:31.973Z,101970.44
2022-10-03T05:35:13.659Z,101969.47
2022-10-03T05:37:57.057Z,101962.28
2022-10-03T05:40:30.350Z,101969.91
2022-10-03T05:43:21.181Z,101977.69
2022-10-03T05:45:54.699Z,101973.78
2022-10-03T05:48:47.116Z,101970.50
2022-10-03T05:51:46.997Z,101982.16
2022-10-03T05:54:50.850Z,101983.44
2022-10-03T05:57:23.535Z,101990.50
2022-10-03T06:00:08.201Z,101991.47
2022-10-03T06:03:10.664Z,101995.97
2022-10-03T06:06:18.059Z,101990.84
2022-10-03T06:08:55.477Z,101992.50
2022-10-03T06:11:34.689Z,102002.19
2022-10-03T06:14:29.037Z,101997.88
2022-10-03T06:17:53.689Z,101992.91
2022-10-03T06:20:28.941Z,101997.66
2022-10-03T06:23:34.611Z,102002.50
2022-10-03T06:26:26.056Z,102002.97
2022-10-03T06:29:01.979Z,101990.59
2022-10-03T06:31:49.285Z,101992.84
2022-10-03T06:34:38.067Z,101992.16
2022-10-03T06:37:29.293Z,101992.03
2022-10-03T06:40:19.390Z,102008.78
2022-10-03T06:43:10.426Z,102012.47
2022-10-03T06:45:39.572Z,102012.91
2022-10-03T06:49:03.978Z,102012.44
2022-10-03T06:52:02.005Z,102016.09
2022-10-03T06:54:46.942Z,102021.38
2022-10-03T06:57:19.595Z,102019.00
2022-10-03T07:00:01.608Z,102021.25
2022-10-03T07:02:40.317Z,102020.53
2022-10-03T07:05:43.413Z,102016.28
2022-10-03T07:08:36.213Z,102017.59
2022-10-03T07:11:21.122Z,102018.06
2022-10-03T07:13:58.510Z,102033.09
2022-10-03T07:17:04.746Z,102022.66
2022-10-03T07:19:53.765Z,102022.75
2022-10-03T07:22:35.670Z,102031.81
2022-10-03T07:25:40.678Z,102028.72
2022-10-03T07:28:38.301Z,102032.38
2022-10-03T07:31:12.539Z,102030.72
2022-10-03T07:34:16.581Z,102033.53
2022-10-03T07:37:10.829Z,102044.88
2022-10-03T07:39:56.168Z,102034.44
2022-10-03T07:42:50.015Z,102042.38
2022-10-03T07:45:37.444Z,102039.06
2022-10-03T07:48:25.971Z,102043.69
2022-10-03T07:51:27.558Z,102050.91
2022-10-03T07:53:53.979Z,102045.63
2022-10-03T07:56:44.329Z,102048.69
2022-10-03T07:59:50.036Z,102064.03
2022-10-03T08:02:37.204Z,102055.47
2022-10-03T08:05:26.616Z,102058.03
2022-10-03T08:08:16.633Z,102059.25
2022-10-03T08:11:04.952Z,102067.19
2022-10-03T08:14:00.403Z,102061.88
2022-10-03T08:17:02.972Z,102076.50
2022-10-03T08:19:55.305Z,102070.97
2022-10-03T08:23:04.657Z,102070.31
2022-10-03T08:26:11.594Z,102072.06
2022-10-03T08:28:56.127Z,102067.78
2022-10-03T08:31:31.058Z,102064.44
2022-10-03T08:34:22.615Z,102065.34
2022-10-03T08:36:54.726Z,102062.44
2022-10-03T08:39:50.243Z,102067.91
2022-10-03T08:42:43.934Z,102074.00
2022-10-03T08:45:32.147Z,102077.75
2022-10-03T08:48:34.855Z,102075.69
2022-10-03T08:51:16.559Z,102088.13
2022-10-03T08:54:15.683Z,102094.72
2022-10-03T08:56:57.321Z,102101.41
2022-10-03T08:59:37.598Z,102094.63
2022-10-03T09:02:42.685Z,102091.91
2022-10-03T09:05:34.686Z,102083.72
2022-10-03T09:08:22.658Z,102086.09
2022-10-03T09:11:16.928Z,102094.88
2022-10-03T09:14:17.588Z,102097.91
2022-10-03T09:17:00.317Z,102102.69
2022-10-03T09:20:04.538Z,102101.41
2022-10-03T09:22:45.062Z,102101.75
2022-10-03T09:25:46.710Z,102108.44
2022-10-03T09:28:38.376Z,102100.34
2022-10-03T09:31:08.263Z,102105.06
2022-10-03T09:34:02.926Z,102106.19
2022-10-03T09:36:54.102Z,102099.13
2022-10-03T09:39:51.555Z,102101.59
2022-10-03T09:42:47.000Z,102107.09
2022-10-03T09:45:22.282Z,102109.81
2022-10-03T09:48:13.402Z,102088.78
2022-10-03T09:50:59.255Z,102092.66
2022-10-03T09:53:26.569Z,102098.44
2022-10-03T09:56:14.270Z,102109.81
2022-10-03T09:59:18.948Z,102089.00
2022-10-03T10:02:03.958Z,102105.41
2022-10-03T10:04:56.311Z,102102.69
2022-10-03T10:07:44.940Z,102097.25
2022-10-03T10:10:40.650Z,102107.63
2022-10-03T10:14:06.113Z,102102.72
2022-10-03T10:16:55.442Z,102092.13
2022-10-03T10:19:34.195Z,102087.84
2022-10-03T10:22:22.196Z,102089.84
2022-10-03T10:25:04.614Z,102086.56
2022-10-03T10:28:08.678Z,102091.03
2022-10-03T10:31:03.082Z,102084.75
2022-10-03T10:33:57.555Z,102082.00
2022-10-03T10:36:54.933Z,102077.94
2022-10-03T10:39:24.325Z,102077.94
2022-10-03T10:42:05.829Z,102075.19
2022-10-03T10:44:59.934Z,102082.56
2022-10-03T10:48:22.173Z,102072.97
2022-10-03T10:50:52.377Z,102077.06
2022-10-03T10:54:03.968Z,102078.16
2022-10-03T10:56:48.591Z,102068.84
2022-10-03T10:59:37.214Z,102071.84
2022-10-03T11:02:41.214Z,102074.00
2022-10-03T11:05:42.216Z,102063.00
2022-10-03T11:08:54.975Z,102068.47
2022-10-03T11:11:33.021Z,102059.13
2022-10-03T11:14:27.884Z,102062.19
2022-10-03T11:17:14.350Z,102070.69
2022-10-03T11:19:59.427Z,102065.22
2022-10-03T11:23:04.857Z,102067.44
2022-10-03T11:25:43.816Z,102078.44
2022-10-03T11:28:41.863Z,102069.94
2022-10-03T11:31:34.132Z,102065.88
2022-10-03T11:34:42.511Z,102072.16
2022-10-03T11:37:36.252Z,102074.88
2022-10-03T11:40:24.440Z,102068.03
2022-10-03T11:43:15.890Z,102069.38
2022-10-03T11:46:01.019Z,102067.47
2022-10-03T11:48:58.741Z,102060.63
2022-10-03T11:51:53.783Z,102065.84
2022-10-03T11:54:32.207Z,102061.16
2022-10-03T11:57:43.728Z,102060.88
2022-10-03T12:00:23.239Z,102064.44
2022-10-03T12:03:08.374Z,102062.00
2022-10-03T12:06:18.139Z,102067.47
2022-10-03T12:09:06.505Z,102062.81
2022-10-03T12:11:41.730Z,102064.19
2022-10-03T12:14:44.753Z,102064.75
2022-10-03T12:17:15.840Z,102066.69
2022-10-03T12:19:57.721Z,102060.94
2022-10-03T12:22:39.606Z,102063.66
2022-10-03T12:25:23.882Z,102072.41
2022-10-03T12:27:57.007Z,102065.84
2022-10-03T12:30:25.776Z,102065.56
2022-10-03T12:33:21.241Z,102057.59
2022-10-03T12:35:56.809Z,102056.53
2022-10-03T12:38:51.432Z,102060.63
2022-10-03T12:41:31.852Z,102059.22
2022-10-03T12:44:13.391Z,102055.66
2022-10-03T12:47:09.151Z,102055.41
2022-10-03T12:49:51.345Z,102060.06
2022-10-03T12:52:40.453Z,102058.41
2022-10-03T12:55:31.227Z,102062.78
2022-10-03T12:58:22.326Z,102054.53
2022-10-03T13:01:19.638Z,102061.66
2022-10-03T13:04:29.982Z,102059.47
2022-10-03T13:07:16.967Z,102059.78
2022-10-03T13:10:32.084Z,102057.81
2022-10-03T13:13:16.950Z,102057.28
2022-10-03T13:15:44.636Z,102058.38
2022-10-03T13:18:32.213Z,102053.19
2022-10-03T13:21:03.267Z,102049.03
2022-10-03T13:23:42.939Z,102046.03
2022-10-03T13:26:26.443Z,102037.28
2022-10-03T13:29:30.026Z,102036.16
2022-10-03T13:31:56.888Z,102033.97
2022-10-03T13:34:30.743Z,102026.84
2022-10-03T13:37:33.749Z,102028.53
2022-10-03T13:40:19.730Z,102028.75
2022-10-03T13:42:53.429Z,102025.97
2022-10-03T13:45:26.439Z,102029.66
2022-10-03T13:48:00.681Z,102030.31
2022-10-03T13:50:36.627Z,102031.28
2022-10-03T13:53:43.223Z,102035.34
2022-10-03T13:56:19.451Z,102028.28
2022-10-03T13:59:08.208Z,102033.63
2022-10-03T14:02:04.670Z,102024.41
2022-10-03T14:04:38.494Z,102030.19
2022-10-03T14:07:27.266Z,102028.06
2022-10-03T14:10:29.645Z,102026.19
2022-10-03T14:13:17.383Z,102028.19
2022-10-03T14:16:16.608Z,102019.47
2022-10-03T14:18:52.045Z,102020.28
2022-10-03T14:21:49.846Z,102026.56
2022-10-03T14:24:36.838Z,102023.56
2022-10-03T14:27:17.575Z,102017.28
2022-10-03T14:30:13.585Z,102028.53
2022-10-03T14:32:54.066Z,102025.53
2022-10-03T14:35:33.478Z,102021.47
2022-10-03T14:38:50.814Z,102016.28
2022-10-03T14:41:21.512Z,102018.44
2022-10-03T14:43:59.859Z,102015.72
2022-10-03T14:47:00.778Z,102015.94
2022-10-03T14:49:53.585Z,102014.00
2022-10-03T14:52:28.752Z,102006.91
2022-10-03T14:54:57.601Z,102010.69
2022-10-03T14:57:39.635Z,102003.28
2022-10-03T15:00:35.710Z,102006.03
2022-10-03T15:03:17.486Z,102002.50
2022-10-03T15:06:19.163Z,102006.00
2022-10-03T15:08:49.743Z,102006.03
2022-10-03T15:11:35.355Z,102004.38
2022-10-03T15:14:08.800Z,102001.63
2022-10-03T15:16:48.215Z,101999.94
2022-10-03T15:19:23.206Z,101999.94
2022-10-03T15:21:52.971Z,102000.22
2022-10-03T15:24:25.260Z,102003.56
2022-10-03T15:27:06.376Z,102002.72
2022-10-03T15:29:34.531Z,101999.13
2022-10-03T15:32:04.120Z,101996.69
2022-10-03T15:34:39.652Z,101993.16
2022-10-03T15:37:17.502Z,101998.38
2022-10-03T15:39:45.765Z,102001.41
2022-10-03T15:42:18.082Z,101988.84
2022-10-03T15:44:51.535Z,101999.56
2022-10-03T15:47:28.503Z,101995.97
2022-10-03T15:50:04.669Z,101989.72
2022-10-03T15:52:41.417Z,101986.69
2022-10-03T15:55:15.694Z,101987.56
2022-10-03T15:57:48.015Z,101990.00
2022-10-03T16:00:26.400Z,101988.66
2022-10-03T16:03:34.153Z,101983.72
2022-10-03T16:06:04.991Z,101977.97
2022-10-03T16:08:36.143Z,101974.91
2022-10-03T16:11:14.414Z,101976.56
2022-10-03T16:13:45.967Z,101976.53
2022-10-03T16:16:42.772Z,101976.00
2022-10-03T16:19:31.884Z,101976.22
2022-10-03T16:22:21.179Z,101972.41
2022-10-03T16:25:29.036Z,101976.53
2022-10-03T16:28:04.818Z,101971.84
2022-10-03T16:30:42.406Z,101969.38
2022-10-03T16:33:31.211Z,101972.09
2022-10-03T16:36:03.293Z,101964.44
2022-10-03T16:38:39.912Z,101969.88
2022-10-03T16:41:16.005Z,101961.09
2022-10-03T16:43:57.106Z,101965.44
2022-10-03T16:46:25.611Z,101962.47
2022-10-03T16:49:14.833Z,101971.72
2022-10-03T16:51:45.893Z,101972.47
2022-10-03T16:54:18.628Z,101966.50
2022-10-03T16:57:00.993Z,101966.50
2022-10-03T16:59:30.618Z,101968.03
2022-10-03T17:02:04.021Z,101971.84
2022-10-03T17:04:39.105Z,101974.56
2022-10-03T17:07:16.105Z,101975.88
2022-10-03T17:09:47.818Z,101978.78
2022-10-03T17:12:23.873Z,101978.22
2022-10-03T17:14:53.304Z,101976.84
2022-10-03T17:18:00.230Z,101980.97
2022-10-03T17:20:52.229Z,101992.34
2022-10-03T17:23:49.269Z,101989.88
2022-10-03T17:26:30.892Z,101988.19
2022-10-03T17:29:08.951Z,101981.31
2022-10-03T17:32:19.169Z,101981.78
2022-10-03T17:34:56.529Z,101978.84
2022-10-03T17:37:35.042Z,101988.03
2022-10-03T17:40:35.799Z,101987.09
2022-10-03T17:43:14.461Z,101981.91
2022-10-03T17:46:12.675Z,101986.47
2022-10-03T17:49:06.058Z,101986.66
2022-10-03T17:51:55.138Z,101978.19
2022-10-03T17:54:29.648Z,101981.13
2022-10-03T17:57:16.452Z,101987.59
2022-10-03T18:00:08.843Z,101982.66
2022-10-03T18:02:43.996Z,101977.66
2022-10-03T18:05:28.438Z,101984.47
2022-10-03T18:07:57.490Z,101981.75
2022-10-03T18:10:29.437Z,101986.50
2022-10-03T18:12:59.997Z,101979.66
2022-10-03T18:15:41.150Z,101981.53
2022-10-03T18:18:34.674Z,101986.06
2022-10-03T18:21:27.555Z,101980.03
2022-10-03T18:23:55.462Z,101985.66
2022-10-03T18:26:41.421Z,101985.53
2022-10-03T18:29:18.687Z,101982.44
2022-10-03T18:31:53.617Z,101988.41
2022-10-03T18:34:27.225Z,101975.78
2022-10-03T18:36:55.667Z,101978.38
2022-10-03T18:39:28.647Z,101985.91
2022-10-03T18:41:58.656Z,101987.22
2022-10-03T18:44:28.781Z,101989.31
2022-10-03T18:46:57.974Z,101988.56
2022-10-03T18:49:34.330Z,101980.78
2022-10-03T18:52:22.723Z,101980.78
2022-10-03T18:55:02.378Z,101987.22
2022-10-03T18:57:41.195Z,101984.50
2022-10-03T19:00:09.419Z,101976.50
2022-10-03T19:02:41.580Z,101968.56
2022-10-03T19:05:20.694Z,101975.59
2022-10-03T19:08:01.106Z,101972.28
2022-10-03T19:10:40.935Z,101971.16
2022-10-03T19:13:24.666Z,101966.78
2022-10-03T19:16:17.689Z,101962.16
2022-10-03T19:19:03.639Z,101959.69
2022-10-03T19:21:37.430Z,101965.31
2022-10-03T19:24:53.406Z,101969.34
2022-10-03T19:27:19.217Z,101971.75
2022-10-03T19:29:49.367Z,101967.38
2022-10-03T19:32:24.326Z,101967.53
2022-10-03T19:34:52.938Z,101969.69
2022-10-03T19:37:27.783Z,101969.13
2022-10-03T19:39:54.398Z,101966.63
2022-10-03T19:42:44.872Z,101970.66
2022-10-03T19:45:13.302Z,101973.66
2022-10-03T19:47:52.143Z,101979.09
2022-10-03T19:50:28.618Z,101977.78
2022-10-03T19:52:56.274Z,101974.97
2022-10-03T19:55:24.123Z,101972.50
2022-10-03T19:57:58.900Z,101984.72
2022-10-03T20:00:38.323Z,101977.59
2022-10-03T20:03:06.955Z,101979.16
2022-10-03T20:05:42.056Z,101977.78
2022-10-03T20:08:21.342Z,101974.22
2022-10-03T20:10:52.797Z,101979.84
2022-10-03T20:13:19.575Z,101984.91
2022-10-03T20:15:51.805Z,101982.03
2022-10-03T20:18:25.233Z,101977.09
2022-10-03T20:20:54.912Z,101975.94
2022-10-03T20:23:26.228Z,101970.31
2022-10-03T20:26:10.334Z,101975.94
2022-10-03T20:29:04.861Z,101970.88
2022-10-03T20:31:33.167Z,101968.16
2022-10-03T20:34:04.434Z,101975.59
2022-10-03T20:36:35.488Z,101982.34
2022-10-03T20:39:07.746Z,101973.84
2022-10-03T20:41:53.867Z,101975.50
2022-10-03T20:44:30.094Z,101970.50
2022-10-03T20:47:07.367Z,101969.94
2022-10-03T20:49:50.013Z,101968.97
2022-10-03T20:52:22.185Z,101964.50
2022-10-03T20:54:57.640Z,101977.84
2022-10-03T20:57:32.794Z,101971.72
2022-10-03T21:00:11.569Z,101978.72
2022-10-03T21:02:49.573Z,101978.59
2022-10-03T21:05:45.371Z,101977.16
2022-10-03T21:08:29.362Z,101975.44
2022-10-03T21:10:59.950Z,101964.81
2022-10-03T21:13:51.930Z,101969.06
2022-10-03T21:16:27.370Z,101961.00
2022-10-03T21:18:59.072Z,101953.84
2022-10-03T21:21:33.066Z,101963.47
2022-10-03T21:24:24.422Z,101956.94
2022-10-03T21:27:13.005Z,101956.84
2022-10-03T21:29:41.620Z,101957.56
2022-10-03T21:32:08.533Z,101963.56
2022-10-03T21:34:55.403Z,101954.28
2022-10-03T21:37:37.458Z,101956.03
2022-10-03T21:40:08.902Z,101956.19
2022-10-03T21:43:05.969Z,101952.31
2022-10-03T21:45:57.215Z,101946.53
2022-10-03T21:48:48.222Z,101948.63
2022-10-03T21:51:42.672Z,101942.16
2022-10-03T21:54:46.854Z,101940.72
2022-10-03T21:57:28.478Z,101938.72
2022-10-03T22:00:13.664Z,101943.47
2022-10-03T22:02:47.852Z,101942.63
2022-10-03T22:05:47.027Z,101947.25
2022-10-03T22:08:14.698Z,101941.25
2022-10-03T22:10:55.967Z,101935.19
2022-10-03T22:13:31.536Z,101932.72
2022-10-03T22:16:14.228Z,101929.63
2022-10-03T22:18:59.225Z,101926.91
2022-10-03T22:21:32.075Z,101922.56
2022-10-03T22:24:22.261Z,101929.06
2022-10-03T22:26:57.527Z,101924.31
2022-10-03T22:29:42.798Z,101925.16
2022-10-03T22:32:27.353Z,101915.66
2022-10-03T22:35:12.408Z,101914.03
2022-10-03T22:37:39.615Z,101905.03
2022-10-03T22:40:06.930Z,101914.28
2022-10-03T22:42:42.436Z,101916.50
2022-10-03T22:45:35.944Z,101910.34
2022-10-03T22:48:10.656Z,101911.53
2022-10-03T22:50:41.654Z,101910.47
2022-10-03T22:53:13.929Z,101913.19
2022-10-03T22:55:44.171Z,101916.91
2022-10-03T22:58:12.646Z,101906.84
2022-10-03T23:00:42.650Z,101902.59
2022-10-03T23:03:14.841Z,101908.16
2022-10-03T23:05:53.573Z,101915.47
2022-10-03T23:08:35.275Z,101907.81
2022-10-03T23:11:09.498Z,101911.94
2022-10-03T23:13:44.011Z,101916.19
2022-10-03T23:16:17.765Z,101918.56
2022-10-03T23:18:59.440Z,101921.03
2022-10-03T23:21:27.316Z,101920.47
2022-10-03T23:24:22.659Z,101919.31
2022-10-03T23:27:03.629Z,101912.22
2022-10-03T23:29:30.179Z,101920.13
2022-10-03T23:32:04.368Z,101919.78
2022-10-03T23:34:34.516Z,101912.09
2022-10-03T23:37:13.391Z,101907.97
2022-10-03T23:39:42.413Z,101903.28
2022-10-03T23:42:09.987Z,101916.25
2022-10-03T23:44:49.627Z,101915.91
2022-10-03T23:47:19.703Z,101898.81
2022-10-03T23:49:48.419Z,101905.88
2022-10-03T23:52:26.674Z,101903.03
2022-10-03T23:54:58.347Z,101899.28
2022-10-03T23:57:34.303Z,101896.44
